createdAt,value
2022-08-21T00:04:54.511Z,100474.25
2022-08-21T00:09:59.358Z,100474.69
2022-08-21T00:15:00.865Z,100480.53
2022-08-21T00:20:05.016Z,100473.06
2022-08-21T00:25:07.715Z,100467.19
2022-08-21T00:30:10.855Z,100459.91
2022-08-21T00:35:20.575Z,100456.09
2022-08-21T00:40:47.938Z,100459.97
2022-08-21T00:45:50.348Z,100454.63
2022-08-21T00:51:06.162Z,100465.41
2022-08-21T00:56:10.090Z,100452.28
2022-08-21T01:01:13.256Z,100451.91
2022-08-21T01:06:14.734Z,100454.91
2022-08-21T01:11:16.814Z,100455.06
2022-08-21T01:16:21.259Z,100460.88
2022-08-21T01:21:28.458Z,100452.91
2022-08-21T01:26:34.537Z,100442.03
2022-08-21T01:31:38.083Z,100450.91
2022-08-21T01:36:39.942Z,100446.81
2022-08-21T01:41:41.534Z,100444.94
2022-08-21T01:46:43.029Z,100449.78
2022-08-21T01:51:44.942Z,100452.63
2022-08-21T01:56:50.441Z,100451.94
2022-08-21T02:01:52.003Z,100441.16
2022-08-21T02:06:54.517Z,100448.38
2022-08-21T02:11:56.182Z,100434.94
2022-08-21T02:17:03.350Z,100434.25
2022-08-21T02:22:10.611Z,100433.03
2022-08-21T02:27:12.089Z,100428.44
2022-08-21T02:32:15.790Z,100424.38
2022-08-21T02:37:17.395Z,100422.91
2022-08-21T02:42:18.969Z,100417.28
2022-08-21T02:47:20.418Z,100429.47
2022-08-21T02:52:22.752Z,100421.25
2022-08-21T02:57:24.290Z,100430.22
2022-08-21T03:02:26.716Z,100429.88
2022-08-21T03:07:28.218Z,100426.09
2022-08-21T03:12:30.206Z,100430.59
2022-08-21T03:17:31.976Z,100430.72
2022-08-21T03:22:33.564Z,100430.06
2022-08-21T03:27:35.794Z,100432.88
2022-08-21T03:32:40.023Z,100428.75
2022-08-21T03:37:41.599Z,100441.94
2022-08-21T03:42:43.214Z,100433.09
2022-08-21T03:47:55.232Z,100430.72
2022-08-21T03:52:57.081Z,100425.59
2022-08-21T03:57:58.710Z,100430.00
2022-08-21T04:03:01.346Z,100437.91
2022-08-21T04:08:05.356Z,100434.84
2022-08-21T04:13:08.433Z,100444.72
2022-08-21T04:18:09.931Z,100462.78
2022-08-21T04:23:11.530Z,100467.25
2022-08-21T04:28:14.401Z,100470.63
2022-08-21T04:33:15.909Z,100470.50
2022-08-21T04:38:17.684Z,100477.19
2022-08-21T04:43:21.541Z,100475.66
2022-08-21T04:48:25.165Z,100480.00
2022-08-21T04:53:49.859Z,100482.88
2022-08-21T04:58:57.117Z,100493.59
2022-08-21T05:04:00.816Z,100498.59
2022-08-21T05:09:02.752Z,100498.25
2022-08-21T05:14:04.709Z,100492.94
2022-08-21T05:19:06.725Z,100496.75
2022-08-21T05:24:09.531Z,100501.72
2022-08-21T05:29:12.331Z,100511.63
2022-08-21T05:34:18.820Z,100494.69
2022-08-21T05:39:20.743Z,100490.63
2022-08-21T05:44:22.413Z,100493.53
2022-08-21T05:49:24.012Z,100481.81
2022-08-21T05:54:26.134Z,100475.97
2022-08-21T05:59:28.638Z,100463.91
2022-08-21T06:04:30.421Z,100468.56
2022-08-21T06:09:31.895Z,100465.41
2022-08-21T06:14:33.562Z,100463.91
2022-08-21T06:19:35.060Z,100462.59
2022-08-21T06:24:37.130Z,100462.81
2022-08-21T06:29:44.261Z,100465.91
2022-08-21T06:34:46.281Z,100466.56
2022-08-21T06:39:47.742Z,100462.31
2022-08-21T06:44:51.402Z,100456.84
2022-08-21T06:49:54.581Z,100446.44
2022-08-21T06:54:56.058Z,100443.59
2022-08-21T06:59:57.544Z,100445.53
2022-08-21T07:04:59.087Z,100426.91
2022-08-21T07:10:00.559Z,100432.97
2022-08-21T07:15:02.096Z,100436.97
2022-08-21T07:20:05.526Z,100433.59
2022-08-21T07:25:08.132Z,100425.84
2022-08-21T07:30:10.049Z,100420.69
2022-08-21T07:35:12.072Z,100423.28
2022-08-21T07:40:15.243Z,100414.25
2022-08-21T07:45:16.955Z,100417.44
2022-08-21T07:50:19.756Z,100419.75
2022-08-21T07:55:23.336Z,100418.47
2022-08-21T08:00:27.862Z,100413.03
2022-08-21T08:05:31.255Z,100404.06
2022-08-21T08:10:33.072Z,100404.50
2022-08-21T08:15:37.651Z,100405.66
2022-08-21T08:20:39.226Z,100395.19
2022-08-21T08:25:40.810Z,100385.09
2022-08-21T08:30:43.502Z,100398.22
2022-08-21T08:35:48.512Z,100389.41
2022-08-21T08:41:02.870Z,100375.38
2022-08-21T08:46:12.804Z,100376.78
2022-08-21T08:51:27.993Z,100364.94
2022-08-21T08:56:34.655Z,100362.53
2022-08-21T09:01:39.205Z,100357.44
2022-08-21T09:06:59.198Z,100360.78
2022-08-21T09:12:11.128Z,100352.84
2022-08-21T09:17:56.951Z,100336.31
2022-08-21T09:23:06.270Z,100327.31
2022-08-21T09:28:12.360Z,100323.28
2022-08-21T09:33:14.399Z,100318.41
2022-08-21T09:38:26.635Z,100318.38
2022-08-21T09:43:28.310Z,100316.25
2022-08-21T09:48:32.755Z,100306.47
2022-08-21T09:53:36.263Z,100310.91
2022-08-21T09:58:39.970Z,100304.50
2022-08-21T10:03:41.564Z,100298.97
2022-08-21T10:08:43.049Z,100301.84
2022-08-21T10:13:56.591Z,100300.41
2022-08-21T10:19:32.174Z,100299.34
2022-08-21T10:24:40.586Z,100295.13
2022-08-21T10:30:14.365Z,100284.63
2022-08-21T10:35:38.103Z,100271.34
2022-08-21T10:40:49.736Z,100275.72
2022-08-21T10:46:34.441Z,100267.00
2022-08-21T10:51:45.647Z,100260.09
2022-08-21T10:56:51.658Z,100256.06
2022-08-21T11:02:03.257Z,100257.25
2022-08-21T11:07:11.846Z,100256.66
2022-08-21T11:12:29.013Z,100259.09
2022-08-21T11:17:58.348Z,100234.09
2022-08-21T11:23:05.834Z,100240.22
2022-08-21T11:28:24.853Z,100231.03
2022-08-21T11:33:52.635Z,100233.34
2022-08-21T11:39:02.540Z,100229.06
2022-08-21T11:44:37.656Z,100227.91
2022-08-21T11:50:03.074Z,100211.34
2022-08-21T11:55:23.965Z,100222.69
2022-08-21T12:00:37.040Z,100218.09
2022-08-21T12:05:45.300Z,100213.25
2022-08-21T12:11:00.115Z,100203.47
2022-08-21T12:16:16.963Z,100199.09
2022-08-21T12:21:23.451Z,100198.19
2022-08-21T12:26:29.740Z,100196.16
2022-08-21T12:31:31.334Z,100195.97
2022-08-21T12:37:00.499Z,100189.44
2022-08-21T12:42:19.392Z,100190.28
2022-08-21T12:47:34.137Z,100189.94
2022-08-21T12:53:00.555Z,100183.88
2022-08-21T12:58:02.128Z,100190.97
2022-08-21T13:03:04.279Z,100184.50
2022-08-21T13:08:09.185Z,100181.44
2022-08-21T13:13:25.717Z,100172.56
2022-08-21T13:18:33.919Z,100168.31
2022-08-21T13:23:35.815Z,100169.22
2022-08-21T13:28:38.749Z,100167.47
2022-08-21T13:33:42.032Z,100158.28
2022-08-21T13:38:45.421Z,100157.41
2022-08-21T13:43:51.526Z,100153.06
2022-08-21T13:48:54.538Z,100150.13
2022-08-21T13:53:56.710Z,100146.44
2022-08-21T13:58:59.402Z,100135.81
2022-08-21T14:04:20.422Z,100137.31
2022-08-21T14:09:32.744Z,100132.94
2022-08-21T14:14:36.341Z,100122.66
2022-08-21T14:19:40.805Z,100125.50
2022-08-21T14:24:42.319Z,100119.06
2022-08-21T14:29:44.381Z,100121.34
2022-08-21T14:34:45.873Z,100111.38
2022-08-21T14:39:48.380Z,100108.38
2022-08-21T14:44:49.948Z,100108.63
2022-08-21T14:49:54.739Z,100100.22
2022-08-21T14:54:56.246Z,100091.75
2022-08-21T15:00:01.753Z,100091.63
2022-08-21T15:05:04.833Z,100088.84
2022-08-21T15:10:07.499Z,100082.28
2022-08-21T15:15:11.396Z,100083.34
2022-08-21T15:20:13.124Z,100084.78
2022-08-21T15:25:14.669Z,100076.09
2022-08-21T15:30:16.653Z,100077.16
2022-08-21T15:35:18.217Z,100074.75
2022-08-21T15:40:20.160Z,100069.56
2022-08-21T15:45:21.957Z,100068.66
2022-08-21T15:50:25.214Z,100073.84
2022-08-21T15:55:26.865Z,100064.84
2022-08-21T16:00:29.485Z,100057.78
2022-08-21T16:05:31.064Z,100057.25
2022-08-21T16:10:32.637Z,100060.19
2022-08-21T16:15:34.395Z,100064.31
2022-08-21T16:20:35.912Z,100063.88
2022-08-21T16:25:40.017Z,100056.28
2022-08-21T16:30:44.819Z,100045.38
2022-08-21T16:35:47.600Z,100050.03
2022-08-21T16:40:49.336Z,100042.25
2022-08-21T16:45:50.909Z,100046.66
2022-08-21T16:50:52.752Z,100043.53
2022-08-21T16:55:54.385Z,100043.44
2022-08-21T17:00:57.126Z,100038.78
2022-08-21T17:05:58.854Z,100036.72
2022-08-21T17:11:01.734Z,100033.50
2022-08-21T17:16:03.808Z,100034.06
2022-08-21T17:21:05.731Z,100036.03
2022-08-21T17:26:07.815Z,100039.34
2022-08-21T17:31:14.707Z,100044.59
2022-08-21T17:36:18.965Z,100035.97
2022-08-21T17:41:22.409Z,100034.63
2022-08-21T17:46:29.662Z,100043.28
2022-08-21T17:51:31.183Z,100038.66
2022-08-21T17:56:37.549Z,100040.88
2022-08-21T18:01:42.820Z,100037.84
2022-08-21T18:06:44.824Z,100039.09
2022-08-21T18:11:46.530Z,100036.69
2022-08-21T18:16:48.072Z,100048.97
2022-08-21T18:21:49.505Z,100046.25
2022-08-21T18:26:52.750Z,100059.78
2022-08-21T18:31:54.501Z,100067.38
2022-08-21T18:36:56.989Z,100062.34
2022-08-21T18:42:00.795Z,100074.97
2022-08-21T18:47:07.429Z,100074.38
2022-08-21T18:52:09.747Z,100075.94
2022-08-21T18:57:11.733Z,100084.78
2022-08-21T19:02:14.349Z,100082.34
2022-08-21T19:07:19.819Z,100086.75
2022-08-21T19:12:24.489Z,100092.66
2022-08-21T19:17:31.428Z,100089.50
2022-08-21T19:22:32.904Z,100095.31
2022-08-21T19:27:35.177Z,100093.50
2022-08-21T19:32:39.608Z,100097.16
2022-08-21T19:37:45.622Z,100108.78
2022-08-21T19:42:47.435Z,100110.06
2022-08-21T19:47:50.928Z,100107.72
2022-08-21T19:52:52.486Z,100111.22
2022-08-21T19:57:55.761Z,100111.84
2022-08-21T20:02:57.266Z,100116.47
2022-08-21T20:07:58.879Z,100118.69
2022-08-21T20:13:00.592Z,100115.75
2022-08-21T20:18:03.645Z,100118.72
2022-08-21T20:23:10.765Z,100117.22
2022-08-21T20:28:13.990Z,100117.97
2022-08-21T20:33:15.887Z,100117.38
2022-08-21T20:38:18.581Z,100121.38
2022-08-21T20:43:20.803Z,100128.34
2022-08-21T20:54:23.167Z,100119.31
2022-08-21T20:59:34.342Z,100119.53
2022-08-21T21:05:02.492Z,100127.28
2022-08-21T21:10:15.562Z,100126.56
2022-08-21T21:15:28.059Z,100128.31
2022-08-21T21:20:37.066Z,100126.94
2022-08-21T21:25:49.316Z,100137.25
2022-08-21T21:30:57.498Z,100139.19
2022-08-21T21:36:08.502Z,100128.94
2022-08-21T21:41:44.622Z,100132.69
2022-08-21T21:47:00.470Z,100132.53
2022-08-21T21:52:14.368Z,100134.84
2022-08-21T21:57:49.434Z,100138.66
2022-08-21T22:03:15.229Z,100133.06
2022-08-21T22:08:19.655Z,100139.19
2022-08-21T22:13:38.486Z,100136.91
2022-08-21T22:18:54.752Z,100134.13
2022-08-21T22:24:03.301Z,100137.94
2022-08-21T22:29:11.387Z,100142.69
2022-08-21T22:34:19.593Z,100140.09
2022-08-21T22:39:38.545Z,100137.94
2022-08-21T22:45:12.472Z,100146.50
2022-08-21T22:50:21.475Z,100144.09
2022-08-21T22:55:46.477Z,100155.16
2022-08-21T23:00:54.391Z,100154.47
2022-08-21T23:05:55.869Z,100162.63
2022-08-21T23:11:01.836Z,100164.47
2022-08-21T23:16:08.081Z,100155.78
2022-08-21T23:21:46.421Z,100153.09
2022-08-21T23:27:00.354Z,100162.44
2022-08-21T23:32:39.243Z,100167.59
2022-08-21T23:38:09.147Z,100163.56
2022-08-21T23:43:35.718Z,100176.66
2022-08-21T23:49:06.004Z,100170.06
2022-08-21T23:54:24.011Z,100166.34
2022-08-21T23:59:37.554Z,100174.28
